createdAt,value
2023-04-02T00:01:39.260Z,7.85
2023-04-02T00:04:16.385Z,7.79
2023-04-02T00:06:47.577Z,7.86
2023-04-02T00:09:25.577Z,7.82
2023-04-02T00:11:55.773Z,7.82
2023-04-02T00:14:27.201Z,7.81
2023-04-02T00:16:59.306Z,7.79
2023-04-02T00:19:34.605Z,7.78
2023-04-02T00:22:03.971Z,7.72
2023-04-02T00:24:33.807Z,7.73
2023-04-02T00:27:02.321Z,7.71
2023-04-02T00:29:30.547Z,7.69
2023-04-02T00:32:01.149Z,7.69
2023-04-02T00:34:33.826Z,7.69
2023-04-02T00:37:02.845Z,7.56
2023-04-02T00:39:33.873Z,7.52
2023-04-02T00:42:05.858Z,7.50
2023-04-02T00:44:37.976Z,7.50
2023-04-02T00:47:14.983Z,7.53
2023-04-02T00:49:44.206Z,7.52
2023-04-02T00:52:15.333Z,7.52
2023-04-02T00:54:46.944Z,7.47
2023-04-02T00:57:18.889Z,7.44
2023-04-02T00:59:56.088Z,7.40
2023-04-02T01:02:29.517Z,7.39
2023-04-02T01:05:00.362Z,7.40
2023-04-02T01:08:01.576Z,7.37
2023-04-02T01:10:44.741Z,7.33
2023-04-02T01:13:25.054Z,7.34
2023-04-02T01:16:02.032Z,7.35
2023-04-02T01:18:50.378Z,7.29
2023-04-02T01:21:38.119Z,7.32
2023-04-02T01:24:08.754Z,7.32
2023-04-02T01:26:46.768Z,7.31
2023-04-02T01:29:19.805Z,7.33
2023-04-02T01:31:50.174Z,7.29
2023-04-02T01:34:23.792Z,7.31
2023-04-02T01:37:07.433Z,7.30
2023-04-02T01:39:46.215Z,7.27
2023-04-02T01:42:21.797Z,7.30
2023-04-02T01:44:53.096Z,7.31
2023-04-02T01:47:27.412Z,7.33
2023-04-02T01:50:03.301Z,7.31
2023-04-02T01:52:38.022Z,7.34
2023-04-02T01:55:08.584Z,7.32
2023-04-02T01:57:37.646Z,7.30
2023-04-02T02:00:12.514Z,7.33
2023-04-02T02:02:42.695Z,7.24
2023-04-02T02:05:14.673Z,7.26
2023-04-02T02:07:46.581Z,7.23
2023-04-02T02:10:19.879Z,7.20
2023-04-02T02:12:48.805Z,7.16
2023-04-02T02:15:21.232Z,7.18
2023-04-02T02:17:50.325Z,7.15
2023-04-02T02:20:19.744Z,7.16
2023-04-02T02:22:50.098Z,7.16
2023-04-02T02:25:21.241Z,7.15
2023-04-02T02:28:09.188Z,7.20
2023-04-02T02:30:43.227Z,7.15
2023-04-02T02:33:19.077Z,7.11
2023-04-02T02:35:53.893Z,7.09
2023-04-02T02:38:49.957Z,7.04
2023-04-02T02:41:30.691Z,7.02
2023-04-02T02:44:03.998Z,6.99
2023-04-02T02:46:35.978Z,7.02
2023-04-02T02:49:10.868Z,7.04
2023-04-02T02:51:45.150Z,7.00
2023-04-02T02:54:20.334Z,7.00
2023-04-02T02:56:54.240Z,7.00
2023-04-02T02:59:23.879Z,6.97
2023-04-02T03:01:54.581Z,6.97
2023-04-02T03:04:25.053Z,6.93
2023-04-02T03:06:58.984Z,6.91
2023-04-02T03:09:38.134Z,6.93
2023-04-02T03:12:17.414Z,6.91
2023-04-02T03:14:49.866Z,6.90
2023-04-02T03:17:24.339Z,6.91
2023-04-02T03:19:58.168Z,6.87
2023-04-02T03:22:35.395Z,6.85
2023-04-02T03:25:09.898Z,6.81
2023-04-02T03:27:43.294Z,6.80
2023-04-02T03:30:27.959Z,6.84
2023-04-02T03:33:04.517Z,6.75
2023-04-02T03:35:38.383Z,6.73
2023-04-02T03:38:13.584Z,6.79
2023-04-02T03:40:50.379Z,6.73
2023-04-02T03:43:23.072Z,6.67
2023-04-02T03:45:55.406Z,6.66
2023-04-02T03:48:31.273Z,6.66
2023-04-02T03:51:03.971Z,6.63
2023-04-02T03:53:33.121Z,6.63
2023-04-02T03:56:04.164Z,6.60
2023-04-02T03:58:39.354Z,6.61
2023-04-02T04:01:14.349Z,6.57
2023-04-02T04:03:47.179Z,6.54
2023-04-02T04:06:22.118Z,6.58
2023-04-02T04:08:54.783Z,6.59
2023-04-02T04:11:28.275Z,6.56
2023-04-02T04:14:02.039Z,6.55
2023-04-02T04:16:36.184Z,6.53
2023-04-02T04:19:12.455Z,6.58
2023-04-02T04:21:45.197Z,6.55
2023-04-02T04:24:25.885Z,6.55
2023-04-02T04:27:09.585Z,6.54
2023-04-02T04:29:49.015Z,6.52
2023-04-02T04:32:27.540Z,6.50
2023-04-02T04:35:08.016Z,6.46
2023-04-02T04:37:42.713Z,6.42
2023-04-02T04:40:19.952Z,6.44
2023-04-02T04:42:51.526Z,6.38
2023-04-02T04:45:36.117Z,6.42
2023-04-02T04:48:08.218Z,6.37
2023-04-02T04:50:42.283Z,6.42
2023-04-02T04:53:17.635Z,6.42
2023-04-02T04:55:48.144Z,6.38
2023-04-02T04:58:24.151Z,6.37
2023-04-02T05:01:01.722Z,6.36
2023-04-02T05:03:35.057Z,6.37
2023-04-02T05:06:13.639Z,6.40
2023-04-02T05:08:47.839Z,6.38
2023-04-02T05:11:24.749Z,6.31
2023-04-02T05:13:56.896Z,6.33
2023-04-02T05:16:29.942Z,6.28
2023-04-02T05:19:07.573Z,6.28
2023-04-02T05:21:44.991Z,6.25
2023-04-02T05:24:46.616Z,6.25
2023-04-02T05:27:26.072Z,6.22
2023-04-02T05:30:00.336Z,6.23
2023-04-02T05:32:34.422Z,6.20
2023-04-02T05:35:07.289Z,6.21
2023-04-02T05:37:41.221Z,6.21
2023-04-02T05:40:16.379Z,6.21
2023-04-02T05:42:52.811Z,6.20
2023-04-02T05:45:28.137Z,6.13
2023-04-02T05:48:01.965Z,6.11
2023-04-02T05:50:40.050Z,6.10
2023-04-02T05:53:20.887Z,6.11
2023-04-02T05:55:56.037Z,6.11
2023-04-02T05:58:36.629Z,6.13
2023-04-02T06:01:45.569Z,6.02
2023-04-02T06:04:30.000Z,6.07
2023-04-02T06:07:02.647Z,6.08
2023-04-02T06:09:38.889Z,6.02
2023-04-02T06:12:23.210Z,6.00
2023-04-02T06:14:51.528Z,6.02
2023-04-02T06:17:22.241Z,5.95
2023-04-02T06:19:52.488Z,5.91
2023-04-02T06:22:25.870Z,5.97
2023-04-02T06:25:04.877Z,5.90
2023-04-02T06:27:42.036Z,5.81
2023-04-02T06:30:19.572Z,5.83
2023-04-02T06:32:50.903Z,5.84
2023-04-02T06:35:20.886Z,5.91
2023-04-02T06:38:00.491Z,5.83
2023-04-02T06:40:42.007Z,5.86
2023-04-02T06:43:22.216Z,5.84
2023-04-02T06:46:10.495Z,5.77
2023-04-02T06:48:54.387Z,5.72
2023-04-02T06:51:26.291Z,5.78
2023-04-02T06:53:55.283Z,5.76
2023-04-02T06:56:37.250Z,5.93
2023-04-02T06:59:07.535Z,5.94
2023-04-02T07:01:40.164Z,5.85
2023-04-02T07:04:09.811Z,5.89
2023-04-02T07:06:42.242Z,5.81
2023-04-02T07:09:11.958Z,5.79
2023-04-02T07:11:46.065Z,5.77
2023-04-02T07:14:15.238Z,5.70
2023-04-02T07:16:44.536Z,5.65
2023-04-02T07:19:19.289Z,5.63
2023-04-02T07:21:48.946Z,5.66
2023-04-02T07:24:18.015Z,5.71
2023-04-02T07:26:48.264Z,5.67
2023-04-02T07:29:17.886Z,5.65
2023-04-02T07:31:46.213Z,5.76
2023-04-02T07:34:14.481Z,5.81
2023-04-02T07:36:42.714Z,5.82
2023-04-02T07:39:11.178Z,5.85
2023-04-02T07:41:54.271Z,5.89
2023-04-02T07:44:22.679Z,5.85
2023-04-02T07:46:51.240Z,5.98
2023-04-02T07:49:19.564Z,5.85
2023-04-02T07:51:47.850Z,5.89
2023-04-02T07:54:16.053Z,5.82
2023-04-02T07:56:44.402Z,5.78
2023-04-02T07:59:14.058Z,5.71
2023-04-02T08:01:42.950Z,5.69
2023-04-02T08:04:19.533Z,5.72
2023-04-02T08:06:48.739Z,5.81
2023-04-02T08:09:17.614Z,5.79
2023-04-02T08:11:46.723Z,5.79
2023-04-02T08:14:16.667Z,5.77
2023-04-02T08:16:47.024Z,5.70
2023-04-02T08:19:15.549Z,5.80
2023-04-02T08:21:43.801Z,5.79
2023-04-02T08:24:12.042Z,5.92
2023-04-02T08:26:40.266Z,5.89
2023-04-02T08:29:08.540Z,5.79
2023-04-02T08:31:38.393Z,5.92
2023-04-02T08:34:06.844Z,5.89
2023-04-02T08:36:37.669Z,5.92
2023-04-02T08:39:06.572Z,5.86
2023-04-02T08:41:39.213Z,5.84
2023-04-02T08:44:38.517Z,5.89
2023-04-02T08:47:10.836Z,5.83
2023-04-02T08:49:49.829Z,5.82
2023-04-02T08:52:24.598Z,5.75
2023-04-02T08:54:53.507Z,5.70
2023-04-02T08:57:28.614Z,5.82
2023-04-02T09:00:00.914Z,5.70
2023-04-02T09:02:38.968Z,5.77
2023-04-02T09:05:16.265Z,5.71
2023-04-02T09:07:44.591Z,5.72
2023-04-02T09:10:16.624Z,5.74
2023-04-02T09:12:49.336Z,5.87
2023-04-02T09:15:34.152Z,5.87
2023-04-02T09:18:14.955Z,6.02
2023-04-02T09:20:43.460Z,6.04
2023-04-02T09:23:16.698Z,5.84
2023-04-02T09:25:57.329Z,6.02
2023-04-02T09:28:29.635Z,5.99
2023-04-02T09:31:04.397Z,5.86
2023-04-02T09:33:50.175Z,5.90
2023-04-02T09:36:33.333Z,5.84
2023-04-02T09:39:06.790Z,5.99
2023-04-02T09:41:37.445Z,5.81
2023-04-02T09:44:30.474Z,5.86
2023-04-02T09:47:03.561Z,5.89
2023-04-02T09:49:35.512Z,6.08
2023-04-02T09:52:29.113Z,5.97
2023-04-02T09:55:18.922Z,6.12
2023-04-02T09:57:49.088Z,6.09
2023-04-02T10:00:31.263Z,5.98
2023-04-02T10:03:04.232Z,6.01
2023-04-02T10:08:10.180Z,6.31
2023-04-02T10:10:41.913Z,6.31
2023-04-02T10:13:19.785Z,6.20
2023-04-02T10:15:54.628Z,6.46
2023-04-02T10:18:32.632Z,6.79
2023-04-02T10:21:04.463Z,6.61
2023-04-02T10:23:34.110Z,6.35
2023-04-02T10:26:20.377Z,6.37
2023-04-02T10:29:06.749Z,6.58
2023-04-02T10:31:45.315Z,6.66
2023-04-02T10:34:21.752Z,6.65
2023-04-02T10:36:54.969Z,6.54
2023-04-02T10:39:27.388Z,6.85
2023-04-02T10:42:02.072Z,6.81
2023-04-02T10:44:41.917Z,6.87
2023-04-02T10:47:22.424Z,6.61
2023-04-02T10:50:01.693Z,6.67
2023-04-02T10:52:38.272Z,6.91
2023-04-02T10:55:14.526Z,6.71
2023-04-02T10:57:44.328Z,6.64
2023-04-02T11:00:21.224Z,6.58
2023-04-02T11:02:54.773Z,6.88
2023-04-02T11:05:30.391Z,6.69
2023-04-02T11:08:04.781Z,6.78
2023-04-02T11:10:36.823Z,6.55
2023-04-02T11:13:10.423Z,6.52
2023-04-02T11:15:39.591Z,6.64
2023-04-02T11:18:12.594Z,6.85
2023-04-02T11:21:06.101Z,6.97
2023-04-02T11:23:39.725Z,7.07
2023-04-02T11:26:38.403Z,7.34
2023-04-02T11:29:14.998Z,6.97
2023-04-02T11:31:44.436Z,7.04
2023-04-02T11:34:15.449Z,7.15
2023-04-02T11:37:04.564Z,7.01
2023-04-02T11:39:57.198Z,6.97
2023-04-02T11:42:31.116Z,7.22
2023-04-02T11:45:53.473Z,7.37
2023-04-02T11:48:30.534Z,7.28
2023-04-02T11:50:59.376Z,7.31
2023-04-02T11:53:32.119Z,7.38
2023-04-02T11:56:11.426Z,7.44
2023-04-02T11:58:53.010Z,7.33
2023-04-02T12:02:06.342Z,7.37
2023-04-02T12:05:03.517Z,7.81
2023-04-02T12:07:52.463Z,7.56
2023-04-02T12:10:22.441Z,7.42
2023-04-02T12:12:52.626Z,7.64
2023-04-02T12:15:35.799Z,7.46
2023-04-02T12:18:07.593Z,7.17
2023-04-02T12:20:36.347Z,7.03
2023-04-02T12:23:05.437Z,6.80
2023-04-02T12:25:40.209Z,7.04
2023-04-02T12:28:19.746Z,7.05
2023-04-02T12:30:49.260Z,6.90
2023-04-02T12:33:27.239Z,7.03
2023-04-02T12:35:58.929Z,6.74
2023-04-02T12:38:28.851Z,6.84
2023-04-02T12:40:59.807Z,7.10
2023-04-02T12:43:31.373Z,7.03
2023-04-02T12:46:01.129Z,7.09
2023-04-02T12:48:30.901Z,6.94
2023-04-02T12:50:59.990Z,7.14
2023-04-02T12:53:35.654Z,7.45
2023-04-02T12:56:04.969Z,7.33
2023-04-02T12:58:37.742Z,7.38
2023-04-02T13:01:15.087Z,7.24
2023-04-02T13:03:43.983Z,6.90
2023-04-02T13:06:26.565Z,7.14
2023-04-02T13:08:55.700Z,6.93
2023-04-02T13:11:24.433Z,6.74
2023-04-02T13:13:54.168Z,6.60
2023-04-02T13:16:35.715Z,6.70
2023-04-02T13:19:19.786Z,6.93
2023-04-02T13:21:48.251Z,6.89
2023-04-02T13:24:20.790Z,6.84
2023-04-02T13:26:50.149Z,7.24
2023-04-02T13:29:25.676Z,7.17
2023-04-02T13:31:55.994Z,6.82
2023-04-02T13:34:24.525Z,6.72
2023-04-02T13:36:53.003Z,6.98
2023-04-02T13:39:21.582Z,7.29
2023-04-02T13:41:52.092Z,7.22
2023-04-02T13:44:24.778Z,7.26
2023-04-02T13:46:54.727Z,7.26
2023-04-02T13:49:23.959Z,7.00
2023-04-02T13:51:54.025Z,6.94
2023-04-02T13:54:25.799Z,6.87
2023-04-02T13:56:55.991Z,7.03
2023-04-02T13:59:26.150Z,6.61
2023-04-02T14:01:58.625Z,6.68
2023-04-02T14:04:30.051Z,7.09
2023-04-02T14:07:26.094Z,7.38
2023-04-02T14:10:06.766Z,7.64
2023-04-02T14:12:47.307Z,7.62
2023-04-02T14:15:32.512Z,7.67
2023-04-02T14:18:19.956Z,7.58
2023-04-02T14:20:57.089Z,8.28
2023-04-02T14:24:00.450Z,8.45
2023-04-02T14:26:39.789Z,7.78
2023-04-02T14:29:16.836Z,8.26
2023-04-02T14:31:52.603Z,8.18
2023-04-02T14:34:30.971Z,8.28
2023-04-02T14:37:13.158Z,8.53
2023-04-02T14:39:50.677Z,8.19
2023-04-02T14:42:23.089Z,8.24
2023-04-02T14:44:58.420Z,8.66
2023-04-02T14:47:34.789Z,8.55
2023-04-02T14:50:11.538Z,8.65
2023-04-02T14:52:43.290Z,8.57
2023-04-02T14:55:20.484Z,8.46
2023-04-02T14:57:52.551Z,8.38
2023-04-02T15:00:30.009Z,8.08
2023-04-02T15:03:07.058Z,8.32
2023-04-02T15:05:42.377Z,8.37
2023-04-02T15:08:20.431Z,8.04
2023-04-02T15:11:00.960Z,8.21
2023-04-02T15:13:37.351Z,8.42
2023-04-02T15:16:12.538Z,8.31
2023-04-02T15:18:42.201Z,8.34
2023-04-02T15:21:29.421Z,8.20
2023-04-02T15:24:03.914Z,8.49
2023-04-02T15:26:39.323Z,8.23
2023-04-02T15:29:28.690Z,8.21
2023-04-02T15:32:03.110Z,8.38
2023-04-02T15:34:37.066Z,8.58
2023-04-02T15:37:12.739Z,8.93
2023-04-02T15:40:00.189Z,9.59
2023-04-02T15:42:30.675Z,10.36
2023-04-02T15:45:23.388Z,10.34
2023-04-02T15:48:03.429Z,9.40
2023-04-02T15:50:45.063Z,8.77
2023-04-02T15:53:31.874Z,8.82
2023-04-02T15:56:15.221Z,8.87
2023-04-02T15:59:15.994Z,8.88
2023-04-02T16:01:55.126Z,8.87
2023-04-02T16:04:38.054Z,8.53
2023-04-02T16:07:25.235Z,8.63
2023-04-02T16:10:06.044Z,8.66
2023-04-02T16:12:38.380Z,8.78
2023-04-02T16:15:15.585Z,8.77
2023-04-02T16:17:47.509Z,8.93
2023-04-02T16:20:21.814Z,9.33
2023-04-02T16:23:00.476Z,9.69
2023-04-02T16:25:35.766Z,9.40
2023-04-02T16:28:16.211Z,9.50
2023-04-02T16:30:55.747Z,9.21
2023-04-02T16:33:43.519Z,8.96
2023-04-02T16:36:27.992Z,8.55
2023-04-02T16:39:04.511Z,8.71
2023-04-02T16:41:43.951Z,8.76
2023-04-02T16:44:24.745Z,8.66
2023-04-02T16:47:03.282Z,8.68
2023-04-02T16:49:37.762Z,8.48
2023-04-02T16:52:21.441Z,8.67
2023-04-02T16:55:11.913Z,8.82
2023-04-02T16:57:50.221Z,8.60
2023-04-02T17:00:24.727Z,8.38
2023-04-02T17:03:07.169Z,8.36
2023-04-02T17:05:46.269Z,8.36
2023-04-02T17:08:22.430Z,8.32
2023-04-02T17:10:57.449Z,8.43
2023-04-02T17:13:29.986Z,8.23
2023-04-02T17:16:05.811Z,8.24
2023-04-02T17:18:34.636Z,8.14
2023-04-02T17:21:06.600Z,8.14
2023-04-02T17:23:55.318Z,8.07
2023-04-02T17:26:28.913Z,8.00
2023-04-02T17:28:59.644Z,7.89
2023-04-02T17:31:34.228Z,7.99
2023-04-02T17:34:10.948Z,7.88
2023-04-02T17:36:45.298Z,7.85
2023-04-02T17:39:21.958Z,7.93
2023-04-02T17:41:58.697Z,7.84
2023-04-02T17:44:44.762Z,7.77
2023-04-02T17:47:18.861Z,7.76
2023-04-02T17:49:58.687Z,7.75
2023-04-02T17:52:35.674Z,7.73
2023-04-02T17:55:13.692Z,7.68
2023-04-02T17:57:55.070Z,7.61
2023-04-02T18:00:45.666Z,7.55
2023-04-02T18:03:52.125Z,7.49
2023-04-02T18:06:23.121Z,7.52
2023-04-02T18:09:08.700Z,7.45
2023-04-02T18:11:48.851Z,7.42
2023-04-02T18:14:36.389Z,7.27
2023-04-02T18:17:11.726Z,7.17
2023-04-02T18:19:50.668Z,7.11
2023-04-02T18:22:27.500Z,7.00
2023-04-02T18:25:19.579Z,6.85
2023-04-02T18:28:04.358Z,6.88
2023-04-02T18:30:40.444Z,6.89
2023-04-02T18:33:34.394Z,6.79
2023-04-02T18:36:11.095Z,6.71
2023-04-02T18:38:45.320Z,6.74
2023-04-02T18:41:29.413Z,6.67
2023-04-02T18:44:15.246Z,6.67
2023-04-02T18:46:50.770Z,6.55
2023-04-02T18:49:29.109Z,6.57
2023-04-02T18:52:01.853Z,6.48
2023-04-02T18:54:34.022Z,6.33
2023-04-02T18:57:03.923Z,6.22
2023-04-02T18:59:39.096Z,6.20
2023-04-02T19:02:27.365Z,6.17
2023-04-02T19:05:02.289Z,6.10
2023-04-02T19:07:34.339Z,5.87
2023-04-02T19:10:09.835Z,5.81
2023-04-02T19:12:38.160Z,5.78
2023-04-02T19:15:17.504Z,5.67
2023-04-02T19:17:49.505Z,5.54
2023-04-02T19:20:29.934Z,5.35
2023-04-02T19:23:05.035Z,5.33
2023-04-02T19:25:54.332Z,5.21
2023-04-02T19:28:29.437Z,5.23
2023-04-02T19:31:09.583Z,5.26
2023-04-02T19:33:50.383Z,5.21
2023-04-02T19:36:36.673Z,5.15
2023-04-02T19:39:30.126Z,5.06
2023-04-02T19:42:07.706Z,5.00
2023-04-02T19:44:36.541Z,4.94
2023-04-02T19:47:05.145Z,4.90
2023-04-02T19:49:36.272Z,4.95
2023-04-02T19:52:04.710Z,4.91
2023-04-02T19:54:33.005Z,4.90
2023-04-02T19:57:03.103Z,4.75
2023-04-02T19:59:32.276Z,4.67
2023-04-02T20:02:04.252Z,4.68
2023-04-02T20:04:34.014Z,4.73
2023-04-02T20:07:02.462Z,4.75
2023-04-02T20:09:30.845Z,4.78
2023-04-02T20:11:59.228Z,4.84
2023-04-02T20:14:27.506Z,4.97
2023-04-02T20:16:55.874Z,4.94
2023-04-02T20:19:24.180Z,4.98
2023-04-02T20:21:53.851Z,4.86
2023-04-02T20:24:22.246Z,4.76
2023-04-02T20:26:50.707Z,4.63
2023-04-02T20:29:18.993Z,4.63
2023-04-02T20:31:47.371Z,4.42
2023-04-02T20:34:15.892Z,4.37
2023-04-02T20:36:45.573Z,4.34
2023-04-02T20:39:19.360Z,4.24
2023-04-02T20:41:48.010Z,4.21
2023-04-02T20:44:16.440Z,4.29
2023-04-02T20:46:44.778Z,4.20
2023-04-02T20:49:13.344Z,4.27
2023-04-02T20:51:41.658Z,4.19
2023-04-02T20:54:10.007Z,4.20
2023-04-02T20:56:39.860Z,4.47
2023-04-02T20:59:08.125Z,4.67
2023-04-02T21:01:36.409Z,4.73
2023-04-02T21:04:05.352Z,4.83
2023-04-02T21:06:36.283Z,4.96
2023-04-02T21:09:08.462Z,4.94
2023-04-02T21:11:37.990Z,4.97
2023-04-02T21:14:07.978Z,4.97
2023-04-02T21:16:36.456Z,5.00
2023-04-02T21:19:07.137Z,4.98
2023-04-02T21:21:35.878Z,4.94
2023-04-02T21:24:06.358Z,4.83
2023-04-02T21:26:36.944Z,4.86
2023-04-02T21:29:07.514Z,4.79
2023-04-02T21:31:37.881Z,4.83
2023-04-02T21:34:07.137Z,4.84
2023-04-02T21:36:37.215Z,4.80
2023-04-02T21:39:07.570Z,4.76
2023-04-02T21:41:37.077Z,4.77
2023-04-02T21:44:08.658Z,4.80
2023-04-02T21:46:39.572Z,4.75
2023-04-02T21:49:08.948Z,4.54
2023-04-02T21:51:39.224Z,4.54
2023-04-02T21:54:08.044Z,4.54
2023-04-02T21:56:38.446Z,4.50
2023-04-02T21:59:09.820Z,4.46
2023-04-02T22:01:40.478Z,4.58
2023-04-02T22:04:10.029Z,4.45
2023-04-02T22:06:39.915Z,4.37
2023-04-02T22:09:10.541Z,4.29
2023-04-02T22:11:41.515Z,4.23
2023-04-02T22:14:11.824Z,4.18
2023-04-02T22:16:40.601Z,4.14
2023-04-02T22:19:10.837Z,3.99
2023-04-02T22:21:39.629Z,4.01
2023-04-02T22:24:10.405Z,3.98
2023-04-02T22:26:40.497Z,3.84
2023-04-02T22:29:09.294Z,3.91
2023-04-02T22:31:39.353Z,3.82
2023-04-02T22:34:08.257Z,3.70
2023-04-02T22:36:37.075Z,3.65
2023-04-02T22:39:07.067Z,3.62
2023-04-02T22:41:35.596Z,3.60
2023-04-02T22:44:04.064Z,3.54
2023-04-02T22:46:32.754Z,3.49
2023-04-02T22:49:02.490Z,3.49
2023-04-02T22:51:31.092Z,3.41
2023-04-02T22:53:59.418Z,3.47
2023-04-02T22:56:32.127Z,3.38
2023-04-02T22:59:00.857Z,3.41
2023-04-02T23:01:31.963Z,3.39
2023-04-02T23:04:00.602Z,3.36
2023-04-02T23:06:30.408Z,3.33
2023-04-02T23:08:58.942Z,3.52
2023-04-02T23:11:28.543Z,3.49
2023-04-02T23:13:58.734Z,3.47
2023-04-02T23:16:28.542Z,3.39
2023-04-02T23:18:57.852Z,3.33
2023-04-02T23:21:26.996Z,3.32
2023-04-02T23:23:56.649Z,3.24
2023-04-02T23:26:29.144Z,3.20
2023-04-02T23:28:58.208Z,3.14
2023-04-02T23:31:27.093Z,3.16
2023-04-02T23:33:55.841Z,3.12
2023-04-02T23:36:26.397Z,3.16
2023-04-02T23:38:57.251Z,3.24
2023-04-02T23:41:27.096Z,3.20
2023-04-02T23:43:56.029Z,3.21
2023-04-02T23:46:25.305Z,3.21
2023-04-02T23:48:54.063Z,3.20
2023-04-02T23:51:23.462Z,3.20
2023-04-02T23:53:52.804Z,3.12
2023-04-02T23:56:23.469Z,3.16
2023-04-02T23:58:52.083Z,3.05
